createdAt,value
2023-03-07T00:02:06.786Z,-1.62
2023-03-07T00:04:34.201Z,-1.62
2023-03-07T00:07:01.893Z,-1.40
2023-03-07T00:09:29.178Z,-1.53
2023-03-07T00:11:56.695Z,-1.52
2023-03-07T00:14:23.952Z,-1.52
2023-03-07T00:16:52.121Z,-1.47
2023-03-07T00:19:19.455Z,-1.36
2023-03-07T00:21:47.095Z,-1.33
2023-03-07T00:24:14.308Z,-1.37
2023-03-07T00:26:42.046Z,-1.40
2023-03-07T00:29:10.494Z,-1.40
2023-03-07T00:31:38.389Z,-1.50
2023-03-07T00:34:05.918Z,-1.50
2023-03-07T00:36:33.590Z,-1.52
2023-03-07T00:39:00.875Z,-1.43
2023-03-07T00:41:29.344Z,-1.50
2023-03-07T00:43:56.755Z,-1.68
2023-03-07T00:46:25.911Z,-1.83
2023-03-07T00:48:53.415Z,-1.91
2023-03-07T00:51:22.415Z,-1.87
2023-03-07T00:53:50.750Z,-2.08
2023-03-07T00:56:22.289Z,-1.90
2023-03-07T00:58:50.516Z,-1.79
2023-03-07T01:01:23.762Z,-1.79
2023-03-07T01:03:53.871Z,-1.85
2023-03-07T01:06:24.118Z,-1.91
2023-03-07T01:08:52.728Z,-1.63
2023-03-07T01:11:20.421Z,-1.59
2023-03-07T01:13:47.766Z,-1.77
2023-03-07T01:16:24.478Z,-1.78
2023-03-07T01:18:54.561Z,-1.84
2023-03-07T01:21:32.007Z,-1.86
2023-03-07T01:24:03.020Z,-1.80
2023-03-07T01:26:32.483Z,-1.71
2023-03-07T01:29:02.780Z,-1.84
2023-03-07T01:31:34.206Z,-1.56
2023-03-07T01:34:03.000Z,-1.40
2023-03-07T01:36:35.336Z,-1.44
2023-03-07T01:39:14.652Z,-1.55
2023-03-07T01:41:47.768Z,-1.57
2023-03-07T01:44:22.329Z,-1.57
2023-03-07T01:46:53.552Z,-1.40
2023-03-07T01:49:32.804Z,-1.60
2023-03-07T01:52:03.210Z,-1.58
2023-03-07T01:54:32.893Z,-1.43
2023-03-07T01:57:04.620Z,-1.59
2023-03-07T01:59:36.884Z,-1.61
2023-03-07T02:02:10.207Z,-1.43
2023-03-07T02:05:06.771Z,-1.54
2023-03-07T02:07:40.774Z,-1.43
2023-03-07T02:10:10.892Z,-1.43
2023-03-07T02:12:40.447Z,-1.54
2023-03-07T02:15:10.541Z,-1.74
2023-03-07T02:17:40.092Z,-1.74
2023-03-07T02:20:35.467Z,-1.69
2023-03-07T02:23:04.779Z,-1.59
2023-03-07T02:25:39.545Z,-1.67
2023-03-07T02:28:11.813Z,-1.88
2023-03-07T02:30:52.139Z,-1.70
2023-03-07T02:33:23.235Z,-1.78
2023-03-07T02:35:56.096Z,-2.00
2023-03-07T02:38:24.909Z,-1.95
2023-03-07T02:40:55.327Z,-2.22
2023-03-07T02:43:23.433Z,-2.38
2023-03-07T02:45:50.833Z,-2.17
2023-03-07T02:48:18.581Z,-2.22
2023-03-07T02:50:45.799Z,-2.23
2023-03-07T02:53:13.420Z,-2.40
2023-03-07T02:55:40.672Z,-2.29
2023-03-07T02:58:08.367Z,-2.40
2023-03-07T03:00:37.053Z,-2.09
2023-03-07T03:03:05.191Z,-2.08
2023-03-07T03:05:32.592Z,-2.13
2023-03-07T03:08:00.263Z,-1.84
2023-03-07T03:10:27.540Z,-1.66
2023-03-07T03:12:55.535Z,-1.58
2023-03-07T03:15:23.744Z,-1.54
2023-03-07T03:17:54.148Z,-1.72
2023-03-07T03:20:21.477Z,-1.71
2023-03-07T03:22:52.293Z,-1.79
2023-03-07T03:25:23.166Z,-1.56
2023-03-07T03:27:51.207Z,-1.58
2023-03-07T03:30:20.237Z,-1.55
2023-03-07T03:32:47.957Z,-1.60
2023-03-07T03:35:17.356Z,-1.47
2023-03-07T03:37:46.005Z,-1.68
2023-03-07T03:40:17.684Z,-1.71
2023-03-07T03:42:46.937Z,-1.75
2023-03-07T03:45:17.176Z,-1.86
2023-03-07T03:47:44.741Z,-1.82
2023-03-07T03:50:12.608Z,-1.74
2023-03-07T03:52:40.655Z,-1.74
2023-03-07T03:55:09.432Z,-1.75
2023-03-07T03:57:37.013Z,-1.56
2023-03-07T04:00:05.845Z,-1.63
2023-03-07T04:02:40.430Z,-1.65
2023-03-07T04:05:12.208Z,-1.76
2023-03-07T04:07:39.848Z,-1.52
2023-03-07T04:10:07.826Z,-1.53
2023-03-07T04:12:35.897Z,-1.43
2023-03-07T04:15:07.274Z,-1.51
2023-03-07T04:17:35.788Z,-1.62
2023-03-07T04:20:04.932Z,-1.59
2023-03-07T04:22:33.459Z,-1.43
2023-03-07T04:25:00.713Z,-1.59
2023-03-07T04:27:28.377Z,-1.48
2023-03-07T04:29:55.973Z,-1.53
2023-03-07T04:32:23.708Z,-1.59
2023-03-07T04:34:51.034Z,-1.67
2023-03-07T04:37:18.575Z,-1.85
2023-03-07T04:39:45.845Z,-1.62
2023-03-07T04:42:14.336Z,-1.75
2023-03-07T04:44:41.653Z,-1.92
2023-03-07T04:47:09.272Z,-1.92
2023-03-07T04:49:37.413Z,-2.03
2023-03-07T04:52:06.882Z,-2.08
2023-03-07T04:54:34.524Z,-2.31
2023-03-07T04:57:03.998Z,-2.32
2023-03-07T04:59:31.855Z,-2.42
2023-03-07T05:01:59.686Z,-2.38
2023-03-07T05:04:27.913Z,-2.35
2023-03-07T05:06:56.210Z,-2.32
2023-03-07T05:09:23.689Z,-2.24
2023-03-07T05:11:53.527Z,-2.06
2023-03-07T05:14:21.780Z,-2.02
2023-03-07T05:16:49.598Z,-1.98
2023-03-07T05:19:17.003Z,-2.03
2023-03-07T05:21:44.865Z,-2.22
2023-03-07T05:24:13.023Z,-2.17
2023-03-07T05:26:40.973Z,-2.07
2023-03-07T05:29:08.235Z,-2.22
2023-03-07T05:31:36.397Z,-2.37
2023-03-07T05:34:05.864Z,-2.49
2023-03-07T05:36:33.512Z,-2.25
2023-03-07T05:39:01.166Z,-1.95
2023-03-07T05:41:29.094Z,-1.95
2023-03-07T05:43:56.514Z,-2.28
2023-03-07T05:46:24.640Z,-2.29
2023-03-07T05:48:52.211Z,-2.43
2023-03-07T05:51:19.803Z,-2.03
2023-03-07T05:53:47.262Z,-1.96
2023-03-07T05:56:15.204Z,-2.03
2023-03-07T05:58:42.837Z,-1.77
2023-03-07T06:01:10.784Z,-1.75
2023-03-07T06:03:38.597Z,-2.42
2023-03-07T06:06:06.582Z,-1.55
2023-03-07T06:08:33.889Z,-1.95
2023-03-07T06:11:01.826Z,-2.25
2023-03-07T06:13:31.134Z,-1.71
2023-03-07T06:15:58.807Z,-1.93
2023-03-07T06:18:26.563Z,-2.32
2023-03-07T06:21:06.281Z,-1.96
2023-03-07T06:23:38.404Z,-1.37
2023-03-07T06:26:12.590Z,-1.98
2023-03-07T06:28:42.686Z,-1.45
2023-03-07T06:31:14.005Z,-0.11
2023-03-07T06:33:42.429Z,-1.31
2023-03-07T06:36:13.405Z,-1.24
2023-03-07T06:38:43.027Z,-0.62
2023-03-07T06:41:10.870Z,-0.62
2023-03-07T06:43:38.540Z,-0.09
2023-03-07T06:46:06.585Z,0.24
2023-03-07T06:48:38.373Z,1.37
2023-03-07T06:51:10.559Z,1.30
2023-03-07T06:53:41.228Z,2.36
2023-03-07T06:56:09.193Z,1.34
2023-03-07T06:58:37.652Z,1.35
2023-03-07T07:01:05.718Z,-0.10
2023-03-07T07:03:35.494Z,0.91
2023-03-07T07:06:03.785Z,0.70
2023-03-07T07:08:31.745Z,1.52
2023-03-07T07:10:59.589Z,0.85
2023-03-07T07:13:27.668Z,2.70
2023-03-07T07:15:55.675Z,0.90
2023-03-07T07:18:24.915Z,1.80
2023-03-07T07:20:56.564Z,1.43
2023-03-07T07:23:27.127Z,0.01
2023-03-07T07:25:55.305Z,-0.44
2023-03-07T07:28:22.875Z,-1.10
2023-03-07T07:30:50.657Z,-0.75
2023-03-07T07:33:18.101Z,-0.28
2023-03-07T07:35:49.359Z,0.12
2023-03-07T07:38:16.950Z,0.69
2023-03-07T07:40:45.260Z,1.81
2023-03-07T07:43:18.123Z,3.22
2023-03-07T07:45:50.330Z,3.39
2023-03-07T07:48:20.826Z,2.24
2023-03-07T07:50:48.735Z,1.68
2023-03-07T07:53:18.823Z,3.20
2023-03-07T07:55:49.021Z,2.41
2023-03-07T07:58:17.368Z,0.36
2023-03-07T08:00:46.225Z,0.14
2023-03-07T08:03:13.547Z,-0.39
2023-03-07T08:05:45.918Z,-0.51
2023-03-07T08:08:13.300Z,-0.32
2023-03-07T08:10:43.222Z,-0.70
2023-03-07T08:13:14.372Z,-0.51
2023-03-07T08:15:42.713Z,-0.49
2023-03-07T08:18:12.700Z,0.01
2023-03-07T08:20:41.381Z,-0.28
2023-03-07T08:23:09.248Z,-0.05
2023-03-07T08:25:36.965Z,-0.24
2023-03-07T08:28:05.542Z,-0.14
2023-03-07T08:30:35.232Z,-0.71
2023-03-07T08:33:02.622Z,-0.18
2023-03-07T08:35:31.135Z,-0.52
2023-03-07T08:38:01.633Z,-0.61
2023-03-07T08:40:30.782Z,-0.03
2023-03-07T08:43:01.061Z,0.06
2023-03-07T08:45:28.887Z,-0.21
2023-03-07T08:47:56.978Z,-0.30
2023-03-07T08:50:27.094Z,-0.07
2023-03-07T08:52:54.530Z,0.27
2023-03-07T08:55:22.059Z,0.19
2023-03-07T08:57:49.445Z,0.03
2023-03-07T09:00:17.964Z,-0.18
2023-03-07T09:02:46.481Z,0.40
2023-03-07T09:05:14.435Z,-0.10
2023-03-07T09:07:42.501Z,0.06
2023-03-07T09:10:11.770Z,-0.09
2023-03-07T09:12:39.064Z,0.30
2023-03-07T09:15:07.092Z,-0.15
2023-03-07T09:17:34.445Z,-0.06
2023-03-07T09:20:02.076Z,-0.20
2023-03-07T09:22:29.387Z,-0.01
2023-03-07T09:24:56.946Z,-0.06
2023-03-07T09:27:24.738Z,-0.16
2023-03-07T09:29:52.264Z,0.07
2023-03-07T09:32:19.542Z,-0.52
2023-03-07T09:34:47.169Z,-0.40
2023-03-07T09:37:14.778Z,-0.84
2023-03-07T09:39:42.320Z,-0.91
2023-03-07T09:43:03.601Z,-0.33
2023-03-07T09:45:49.845Z,-0.59
2023-03-07T09:48:48.038Z,-0.51
2023-03-07T09:51:44.975Z,-0.53
2023-03-07T09:54:17.327Z,-0.37
2023-03-07T09:56:49.661Z,-0.01
2023-03-07T09:59:38.383Z,-0.80
2023-03-07T10:02:23.987Z,-0.55
2023-03-07T10:05:18.636Z,-0.18
2023-03-07T10:07:46.217Z,-0.48
2023-03-07T10:10:33.239Z,-0.72
2023-03-07T10:13:17.280Z,-0.46
2023-03-07T10:15:56.707Z,-0.54
2023-03-07T10:18:33.029Z,-0.72
2023-03-07T10:21:12.401Z,-0.94
2023-03-07T10:24:04.464Z,-0.78
2023-03-07T10:26:47.783Z,-1.05
2023-03-07T10:29:19.095Z,-0.57
2023-03-07T10:31:51.589Z,-1.00
2023-03-07T10:34:32.553Z,-0.40
2023-03-07T10:37:16.253Z,-0.44
2023-03-07T10:39:52.452Z,-0.59
2023-03-07T10:42:22.749Z,-0.93
2023-03-07T10:44:53.919Z,-0.32
2023-03-07T10:47:26.835Z,-0.36
2023-03-07T10:50:08.667Z,-0.54
2023-03-07T10:52:41.320Z,-0.07
2023-03-07T10:55:42.303Z,0.20
2023-03-07T10:58:20.475Z,-0.67
2023-03-07T11:01:07.389Z,-0.01
2023-03-07T11:03:54.243Z,-0.15
2023-03-07T11:06:40.314Z,0.03
2023-03-07T11:09:11.317Z,0.26
2023-03-07T11:11:39.138Z,0.07
2023-03-07T11:14:14.487Z,0.42
2023-03-07T11:16:49.676Z,0.39
2023-03-07T11:19:38.640Z,0.29
2023-03-07T11:22:36.751Z,0.32
2023-03-07T11:25:20.755Z,1.08
2023-03-07T11:27:58.973Z,0.75
2023-03-07T11:30:35.639Z,0.85
2023-03-07T11:33:28.317Z,0.10
2023-03-07T11:36:14.660Z,0.80
2023-03-07T11:39:00.456Z,0.85
2023-03-07T11:41:42.195Z,0.46
2023-03-07T11:44:35.448Z,0.74
2023-03-07T11:47:17.848Z,0.97
2023-03-07T11:49:46.887Z,0.71
2023-03-07T11:52:39.082Z,1.03
2023-03-07T11:55:46.790Z,0.86
2023-03-07T11:58:26.288Z,1.25
2023-03-07T12:00:59.745Z,1.32
2023-03-07T12:03:27.046Z,1.28
2023-03-07T12:06:03.434Z,1.48
2023-03-07T12:08:52.109Z,1.64
2023-03-07T12:11:57.866Z,1.42
2023-03-07T12:14:47.196Z,1.80
2023-03-07T12:17:48.932Z,1.20
2023-03-07T12:20:47.059Z,1.48
2023-03-07T12:23:39.542Z,1.96
2023-03-07T12:26:17.378Z,2.05
2023-03-07T12:28:52.168Z,2.13
2023-03-07T12:31:28.393Z,1.90
2023-03-07T12:34:11.923Z,2.17
2023-03-07T12:36:50.971Z,1.93
2023-03-07T12:39:30.033Z,2.43
2023-03-07T12:42:05.987Z,2.48
2023-03-07T12:44:43.047Z,2.69
2023-03-07T12:47:47.642Z,2.95
2023-03-07T12:50:20.400Z,2.78
2023-03-07T12:53:07.136Z,2.91
2023-03-07T12:55:46.497Z,2.92
2023-03-07T12:58:50.412Z,3.20
2023-03-07T13:01:52.377Z,3.24
2023-03-07T13:04:43.312Z,3.38
2023-03-07T13:07:20.660Z,3.21
2023-03-07T13:09:50.992Z,3.53
2023-03-07T13:12:25.556Z,3.94
2023-03-07T13:14:55.454Z,3.56
2023-03-07T13:17:34.959Z,3.70
2023-03-07T13:20:05.000Z,3.54
2023-03-07T13:22:32.544Z,3.82
2023-03-07T13:25:21.556Z,3.56
2023-03-07T13:27:56.587Z,3.88
2023-03-07T13:30:30.064Z,4.06
2023-03-07T13:32:59.336Z,4.02
2023-03-07T13:35:29.614Z,3.82
2023-03-07T13:37:58.213Z,4.07
2023-03-07T13:40:43.691Z,3.96
2023-03-07T13:43:25.000Z,3.91
2023-03-07T13:46:16.185Z,4.15
2023-03-07T13:48:43.697Z,4.18
2023-03-07T13:51:12.373Z,4.07
2023-03-07T13:54:01.478Z,3.81
2023-03-07T13:56:35.159Z,4.18
2023-03-07T13:59:14.966Z,4.40
2023-03-07T14:01:53.950Z,4.36
2023-03-07T14:04:39.266Z,4.52
2023-03-07T14:07:20.798Z,4.39
2023-03-07T14:10:09.887Z,4.36
2023-03-07T14:13:05.645Z,4.32
2023-03-07T14:15:38.697Z,4.11
2023-03-07T14:18:30.912Z,4.35
2023-03-07T14:21:17.043Z,4.33
2023-03-07T14:24:06.048Z,4.23
2023-03-07T14:26:44.995Z,4.28
2023-03-07T14:29:26.124Z,4.28
2023-03-07T14:31:57.050Z,4.49
2023-03-07T14:34:24.319Z,4.34
2023-03-07T14:37:04.553Z,4.58
2023-03-07T14:39:59.237Z,4.64
2023-03-07T14:42:45.546Z,4.57
2023-03-07T14:45:15.549Z,4.64
2023-03-07T14:47:52.060Z,4.17
2023-03-07T14:50:23.489Z,4.38
2023-03-07T14:52:56.204Z,4.15
2023-03-07T14:55:36.127Z,4.39
2023-03-07T14:58:04.692Z,4.35
2023-03-07T15:00:34.039Z,4.16
2023-03-07T15:03:09.878Z,4.10
2023-03-07T15:05:48.405Z,3.95
2023-03-07T15:08:23.737Z,4.34
2023-03-07T15:11:04.397Z,4.40
2023-03-07T15:13:54.697Z,4.33
2023-03-07T15:16:28.552Z,4.34
2023-03-07T15:19:06.477Z,4.44
2023-03-07T15:21:40.528Z,3.97
2023-03-07T15:24:22.884Z,4.08
2023-03-07T15:26:53.612Z,3.98
2023-03-07T15:29:26.912Z,4.22
2023-03-07T15:32:07.351Z,4.57
2023-03-07T15:34:38.717Z,4.04
2023-03-07T15:37:24.127Z,4.33
2023-03-07T15:40:08.360Z,4.15
2023-03-07T15:42:50.296Z,4.14
2023-03-07T15:45:33.933Z,4.13
2023-03-07T15:48:29.826Z,3.82
2023-03-07T15:51:00.143Z,4.03
2023-03-07T15:53:31.866Z,4.02
2023-03-07T15:56:00.727Z,4.21
2023-03-07T15:58:29.169Z,4.02
2023-03-07T16:01:17.211Z,3.77
2023-03-07T16:03:53.367Z,4.06
2023-03-07T16:06:39.337Z,4.00
2023-03-07T16:09:11.477Z,4.10
2023-03-07T16:11:40.266Z,3.81
2023-03-07T16:14:21.771Z,3.94
2023-03-07T16:16:49.991Z,3.96
2023-03-07T16:19:17.315Z,4.04
2023-03-07T16:21:44.844Z,4.02
2023-03-07T16:24:12.410Z,3.94
2023-03-07T16:26:43.100Z,3.65
2023-03-07T16:29:19.733Z,3.68
2023-03-07T16:31:47.458Z,3.82
2023-03-07T16:34:20.612Z,3.86
2023-03-07T16:36:48.269Z,3.91
2023-03-07T16:39:18.080Z,3.66
2023-03-07T16:41:48.937Z,3.81
2023-03-07T16:44:18.653Z,3.31
2023-03-07T16:46:52.749Z,3.55
2023-03-07T16:49:21.141Z,3.63
2023-03-07T16:51:59.669Z,3.19
2023-03-07T16:54:32.842Z,3.32
2023-03-07T16:57:02.209Z,3.50
2023-03-07T16:59:34.900Z,3.70
2023-03-07T17:02:10.748Z,3.62
2023-03-07T17:04:38.048Z,3.39
2023-03-07T17:07:12.924Z,3.58
2023-03-07T17:09:40.695Z,3.62
2023-03-07T17:12:08.662Z,3.50
2023-03-07T17:14:36.244Z,3.61
2023-03-07T17:17:05.031Z,3.45
2023-03-07T17:19:33.201Z,3.70
2023-03-07T17:22:02.893Z,3.66
2023-03-07T17:24:31.040Z,3.77
2023-03-07T17:27:00.649Z,3.73
2023-03-07T17:29:36.420Z,3.69
2023-03-07T17:32:04.462Z,3.59
2023-03-07T17:34:34.294Z,3.99
2023-03-07T17:37:02.459Z,3.88
2023-03-07T17:39:30.926Z,4.00
2023-03-07T17:41:59.167Z,3.91
2023-03-07T17:44:26.683Z,3.99
2023-03-07T17:46:54.673Z,4.00
2023-03-07T17:49:23.049Z,3.91
2023-03-07T17:51:52.134Z,3.78
2023-03-07T17:54:20.118Z,3.65
2023-03-07T17:56:47.694Z,3.72
2023-03-07T17:59:15.094Z,3.80
2023-03-07T18:01:42.910Z,3.62
2023-03-07T18:04:10.314Z,3.47
2023-03-07T18:06:39.959Z,3.54
2023-03-07T18:09:09.283Z,3.23
2023-03-07T18:11:36.922Z,3.27
2023-03-07T18:14:04.150Z,3.48
2023-03-07T18:16:31.760Z,3.34
2023-03-07T18:19:01.763Z,3.36
2023-03-07T18:21:30.543Z,3.38
2023-03-07T18:23:58.163Z,3.21
2023-03-07T18:26:25.866Z,3.13
2023-03-07T18:28:53.924Z,3.19
2023-03-07T18:31:28.766Z,3.19
2023-03-07T18:33:56.608Z,3.31
2023-03-07T18:36:25.302Z,3.22
2023-03-07T18:38:52.706Z,3.31
2023-03-07T18:41:22.578Z,3.18
2023-03-07T18:43:50.560Z,3.07
2023-03-07T18:46:20.166Z,3.06
2023-03-07T18:48:49.150Z,3.09
2023-03-07T18:51:23.752Z,3.12
2023-03-07T18:53:52.571Z,3.15
2023-03-07T18:56:20.381Z,2.85
2023-03-07T18:58:48.270Z,2.84
2023-03-07T19:01:21.835Z,2.86
2023-03-07T19:03:51.348Z,2.71
2023-03-07T19:06:20.336Z,2.65
2023-03-07T19:08:47.643Z,2.62
2023-03-07T19:11:16.248Z,2.67
2023-03-07T19:13:43.895Z,2.67
2023-03-07T19:16:19.257Z,2.71
2023-03-07T19:18:47.101Z,2.72
2023-03-07T19:21:19.139Z,2.81
2023-03-07T19:23:47.103Z,2.76
2023-03-07T19:26:19.555Z,2.82
2023-03-07T19:28:48.597Z,2.96
2023-03-07T19:31:18.933Z,3.13
2023-03-07T19:33:48.066Z,2.94
2023-03-07T19:36:20.327Z,2.89
2023-03-07T19:38:51.182Z,3.05
2023-03-07T19:41:22.320Z,3.04
2023-03-07T19:43:50.151Z,2.79
2023-03-07T19:46:21.282Z,2.88
2023-03-07T19:48:48.817Z,3.25
2023-03-07T19:51:18.860Z,3.61
2023-03-07T19:53:46.815Z,3.53
2023-03-07T19:56:22.562Z,3.19
2023-03-07T19:58:50.345Z,2.76
2023-03-07T20:01:20.209Z,2.51
2023-03-07T20:03:48.823Z,2.42
2023-03-07T20:06:24.560Z,2.36
2023-03-07T20:08:53.370Z,2.36
2023-03-07T20:11:27.411Z,2.22
2023-03-07T20:13:58.165Z,2.15
2023-03-07T20:16:29.142Z,2.01
2023-03-07T20:19:02.379Z,2.07
2023-03-07T20:21:30.287Z,2.15
2023-03-07T20:24:00.813Z,1.97
2023-03-07T20:26:31.847Z,2.05
2023-03-07T20:29:00.245Z,1.97
2023-03-07T20:31:28.519Z,1.99
2023-03-07T20:33:58.440Z,2.13
2023-03-07T20:36:29.033Z,1.97
2023-03-07T20:38:58.481Z,2.05
2023-03-07T20:41:31.829Z,1.82
2023-03-07T20:44:04.573Z,1.71
2023-03-07T20:46:33.196Z,1.94
2023-03-07T20:49:01.843Z,1.93
2023-03-07T20:51:32.180Z,1.74
2023-03-07T20:54:01.669Z,1.66
2023-03-07T20:56:31.520Z,1.87
2023-03-07T20:59:00.023Z,1.75
2023-03-07T21:01:29.866Z,1.68
2023-03-07T21:04:02.038Z,1.70
2023-03-07T21:06:29.617Z,1.74
2023-03-07T21:08:59.517Z,1.68
2023-03-07T21:11:28.467Z,1.64
2023-03-07T21:13:55.730Z,1.83
2023-03-07T21:16:25.347Z,1.96
2023-03-07T21:18:52.790Z,1.81
2023-03-07T21:21:21.702Z,1.78
2023-03-07T21:23:49.038Z,1.74
2023-03-07T21:26:22.580Z,1.81
2023-03-07T21:28:51.408Z,1.75
2023-03-07T21:31:25.254Z,1.85
2023-03-07T21:33:55.288Z,1.93
2023-03-07T21:36:24.208Z,1.76
2023-03-07T21:38:51.613Z,1.90
2023-03-07T21:41:22.013Z,1.82
2023-03-07T21:43:49.577Z,1.52
2023-03-07T21:46:17.830Z,1.74
2023-03-07T21:48:45.077Z,1.69
2023-03-07T21:51:12.831Z,1.68
2023-03-07T21:53:40.351Z,1.66
2023-03-07T21:56:10.583Z,1.59
2023-03-07T21:58:39.116Z,1.63
2023-03-07T22:01:14.972Z,1.56
2023-03-07T22:03:42.785Z,1.67
2023-03-07T22:06:13.728Z,1.61
2023-03-07T22:08:41.833Z,1.52
2023-03-07T22:11:11.523Z,1.45
2023-03-07T22:13:40.874Z,1.59
2023-03-07T22:16:11.982Z,1.43
2023-03-07T22:18:39.275Z,1.36
2023-03-07T22:21:14.220Z,1.32
2023-03-07T22:23:42.642Z,1.41
2023-03-07T22:26:11.897Z,1.32
2023-03-07T22:28:41.092Z,1.23
2023-03-07T22:31:12.169Z,1.38
2023-03-07T22:33:41.213Z,1.06
2023-03-07T22:36:12.206Z,1.30
2023-03-07T22:38:40.072Z,1.18
2023-03-07T22:41:11.842Z,1.11
2023-03-07T22:43:39.488Z,1.16
2023-03-07T22:46:08.132Z,1.18
2023-03-07T22:48:35.752Z,1.07
2023-03-07T22:51:03.994Z,1.30
2023-03-07T22:53:32.663Z,1.13
2023-03-07T22:56:00.914Z,1.15
2023-03-07T22:58:30.387Z,1.07
2023-03-07T23:00:58.267Z,0.97
2023-03-07T23:03:25.524Z,0.93
2023-03-07T23:05:53.076Z,1.02
2023-03-07T23:08:20.650Z,1.03
2023-03-07T23:10:48.266Z,1.16
2023-03-07T23:13:17.117Z,1.16
2023-03-07T23:15:44.822Z,1.08
2023-03-07T23:18:12.220Z,1.06
2023-03-07T23:20:39.843Z,1.06
2023-03-07T23:23:07.097Z,1.03
2023-03-07T23:25:34.590Z,0.88
2023-03-07T23:28:01.983Z,0.90
2023-03-07T23:30:29.820Z,0.81
2023-03-07T23:32:57.103Z,0.92
2023-03-07T23:35:24.635Z,1.00
2023-03-07T23:37:51.924Z,0.81
2023-03-07T23:40:19.550Z,0.85
2023-03-07T23:42:46.806Z,0.87
2023-03-07T23:45:14.340Z,0.61
2023-03-07T23:47:41.581Z,0.74
2023-03-07T23:50:10.207Z,0.60
2023-03-07T23:52:37.534Z,0.71
2023-03-07T23:55:09.100Z,0.69
2023-03-07T23:57:37.555Z,0.50
